Time;durP1;ratioP1;P1;durP2;ratioP2;P2;SDS_P1;SDS_P2;PMS_P1;PMS_P2;Temp;Humidity;BMP_temperature;BMP_pressure;BME280_temperature;BME280_humidity;BME280_pressure;Samples;Min_cycle;Max_cycle;Signal;HPM_P1;HPM_P2
2022/06/09 00:00:58;;;;;;;;;0.33;0.33;;;;;;;;5072840;28;45482;-74
2022/06/09 00:03:26;;;;;;;;;1.00;1.00;;;;;;;;5070844;28;45574;-73
2022/06/09 00:05:51;;;;;;;;;2.67;0.33;;;;;;;;5071041;28;46575;-74
2022/06/09 00:08:18;;;;;;;;;0.33;0.33;;;;;;;;5072424;28;45426;-73
2022/06/09 00:10:47;;;;;;;;;1.00;1.00;;;;;;;;5068508;28;45511;-74
2022/06/09 00:13:13;;;;;;;;;1.67;1.33;;;;;;;;5070181;27;45505;-74
2022/06/09 00:15:38;;;;;;;;;3.00;2.00;;;;;;;;5072444;27;46866;-73
2022/06/09 00:18:03;;;;;;;;;1.00;1.00;;;;;;;;5069815;28;45317;-73
2022/06/09 00:20:29;;;;;;;;;1.00;1.00;;;;;;;;5071415;28;45237;-73
2022/06/09 00:22:54;;;;;;;;;1.00;0.00;;;;;;;;5068094;27;45404;-73
2022/06/09 00:25:19;;;;;;;;;0.00;0.00;;;;;;;;5070608;27;45445;-74
2022/06/09 00:27:45;;;;;;;;;1.00;1.00;;;;;;;;5073518;28;45516;-73
2022/06/09 00:30:11;;;;;;;;;3.00;1.00;;;;;;;;5068889;28;45637;-74
2022/06/09 00:32:37;;;;;;;;;0.00;0.00;;;;;;;;5072305;27;45628;-74
2022/06/09 00:35:02;;;;;;;;;0.00;0.00;;;;;;;;5067996;28;46206;-74
2022/06/09 00:37:27;;;;;;;;;1.00;1.00;;;;;;;;5067074;28;45378;-74
2022/06/09 00:39:54;;;;;;;;;2.00;1.00;;;;;;;;5062468;28;45413;-74
2022/06/09 00:42:19;;;;;;;;;1.33;1.33;;;;;;;;5069798;28;45477;-74
2022/06/09 00:44:44;;;;;;;;;1.67;1.33;;;;;;;;5072999;28;46088;-74
2022/06/09 00:47:12;;;;;;;;;1.00;1.00;;;;;;;;5070427;28;45394;-74
2022/06/09 00:49:42;;;;;;;;;0.00;0.00;;;;;;;;5067816;27;45423;-74
2022/06/09 00:52:09;;;;;;;;;0.00;0.00;;;;;;;;5069725;28;45494;-74
2022/06/09 00:54:39;;;;;;;;;3.00;1.33;;;;;;;;5069591;27;46295;-73
2022/06/09 00:57:20;;;;;;;;;0.00;0.00;;;;;;;;5073601;28;45436;-73
2022/06/09 00:59:46;;;;;;;;;0.00;0.00;;;;;;;;5072982;28;45320;-73
2022/06/09 01:02:14;;;;;;;;;1.67;0.00;;;;;;;;5069139;28;45484;-73
2022/06/09 01:04:39;;;;;;;;;1.00;1.00;;;;;;;;5067201;28;46078;-74
2022/06/09 01:07:09;;;;;;;;;2.00;0.67;;;;;;;;5070172;28;45568;-73
2022/06/09 01:09:35;;;;;;;;;1.00;1.00;;;;;;;;5071394;28;45417;-73
2022/06/09 01:12:00;;;;;;;;;1.00;1.00;;;;;;;;5069184;28;45893;-74
2022/06/09 01:14:32;;;;;;;;;2.00;0.00;;;;;;;;5070161;28;45244;-73
2022/06/09 01:17:16;;;;;;;;;1.00;1.00;;;;;;;;5067343;27;45413;-74
2022/06/09 01:19:44;;;;;;;;;0.00;0.00;;;;;;;;5066984;27;45448;-73
2022/06/09 01:22:25;;;;;;;;;4.00;1.00;;;;;;;;5075677;27;45300;-73
2022/06/09 01:25:02;;;;;;;;;2.00;0.00;;;;;;;;5069915;28;46991;-73
2022/06/09 01:27:51;;;;;;;;;2.00;0.33;;;;;;;;5072852;28;45381;-73
2022/06/09 01:30:31;;;;;;;;;0.33;0.33;;;;;;;;5068436;28;48535;-73
2022/06/09 01:32:59;;;;;;;;;0.33;0.33;;;;;;;;5068748;27;45465;-74
2022/06/09 01:35:31;;;;;;;;;0.67;0.67;;;;;;;;5071886;28;46204;-73
2022/06/09 01:37:58;;;;;;;;;1.00;0.67;;;;;;;;5062219;28;45446;-74
2022/06/09 01:40:23;;;;;;;;;2.00;1.00;;;;;;;;5061206;28;45382;-74
2022/06/09 01:42:50;;;;;;;;;3.00;1.33;;;;;;;;5071955;28;45414;-74
2022/06/09 01:45:42;;;;;;;;;1.00;1.00;;;;;;;;5068310;28;46356;-74
2022/06/09 01:48:15;;;;;;;;;1.00;1.00;;;;;;;;5050557;28;45511;-74
2022/06/09 01:50:40;;;;;;;;;2.00;0.33;;;;;;;;5050053;28;45498;-73
2022/06/09 01:53:10;;;;;;;;;1.00;0.00;;;;;;;;5050015;28;45486;-74
2022/06/09 01:55:37;;;;;;;;;1.00;0.33;;;;;;;;5049807;28;46380;-74
2022/06/09 01:58:04;;;;;;;;;2.00;0.67;;;;;;;;5049725;28;45428;-74
2022/06/09 02:00:29;;;;;;;;;0.33;0.00;;;;;;;;5050464;28;45320;-73
2022/06/09 02:02:59;;;;;;;;;2.00;0.00;;;;;;;;5052048;28;45297;-74
2022/06/09 02:05:27;;;;;;;;;1.00;1.00;;;;;;;;5052130;28;45451;-73
2022/06/09 02:07:54;;;;;;;;;1.00;1.00;;;;;;;;5049908;28;45573;-73
2022/06/09 02:10:22;;;;;;;;;1.67;0.00;;;;;;;;5049951;28;45468;-73
2022/06/09 02:12:48;;;;;;;;;1.00;1.00;;;;;;;;5049734;28;45523;-73
2022/06/09 02:15:16;;;;;;;;;0.00;0.00;;;;;;;;5050055;28;46115;-74
2022/06/09 02:17:42;;;;;;;;;1.00;1.00;;;;;;;;5052648;28;45314;-74
2022/06/09 02:20:08;;;;;;;;;1.00;1.00;;;;;;;;5050022;28;45602;-73
2022/06/09 02:22:33;;;;;;;;;0.33;0.00;;;;;;;;5049817;28;45279;-73
2022/06/09 02:24:58;;;;;;;;;0.67;0.67;;;;;;;;5048911;28;46228;-74
2022/06/09 02:27:23;;;;;;;;;1.00;0.67;;;;;;;;5048348;28;45284;-73
2022/06/09 02:29:50;;;;;;;;;0.00;0.00;;;;;;;;5048913;28;45214;-74
2022/06/09 02:32:16;;;;;;;;;2.33;0.00;;;;;;;;5047616;28;45570;-73
2022/06/09 02:34:41;;;;;;;;;0.67;0.67;;;;;;;;5045863;28;46120;-73
2022/06/09 02:37:06;;;;;;;;;0.67;0.33;;;;;;;;5048551;28;45492;-73
2022/06/09 02:39:31;;;;;;;;;2.00;0.00;;;;;;;;5038675;28;45385;-73
2022/06/09 02:41:56;;;;;;;;;0.00;0.00;;;;;;;;5047862;28;45679;-74
2022/06/09 02:44:22;;;;;;;;;2.33;1.00;;;;;;;;5050933;28;46980;-73
2022/06/09 02:46:47;;;;;;;;;0.33;0.00;;;;;;;;5045669;28;45461;-74
2022/06/09 02:49:12;;;;;;;;;1.00;1.00;;;;;;;;5047678;28;45406;-73
2022/06/09 02:51:40;;;;;;;;;2.00;1.00;;;;;;;;5049958;28;45415;-73
2022/06/09 02:54:06;;;;;;;;;0.00;0.00;;;;;;;;5046628;28;46148;-74
2022/06/09 02:56:32;;;;;;;;;1.00;1.00;;;;;;;;5059623;28;45362;-73
2022/06/09 02:58:57;;;;;;;;;0.00;0.00;;;;;;;;5065705;28;45347;-73
2022/06/09 03:01:24;;;;;;;;;1.00;0.00;;;;;;;;5065922;28;45295;-73
2022/06/09 03:03:49;;;;;;;;;0.33;0.33;;;;;;;;5060045;28;47365;-73
2022/06/09 03:06:14;;;;;;;;;2.00;2.00;;;;;;;;5066735;28;45411;-73
2022/06/09 03:08:39;;;;;;;;;2.67;0.67;;;;;;;;5070093;28;45438;-74
2022/06/09 03:11:05;;;;;;;;;1.00;1.00;;;;;;;;5064779;28;45601;-73
2022/06/09 03:13:30;;;;;;;;;0.00;0.00;;;;;;;;5065529;28;45533;-74
2022/06/09 03:15:55;;;;;;;;;0.33;0.33;;;;;;;;5069462;28;45497;-73
2022/06/09 03:18:21;;;;;;;;;1.33;1.00;;;;;;;;5067468;28;45474;-73
2022/06/09 03:20:46;;;;;;;;;1.00;1.00;;;;;;;;5068761;28;45479;-73
2022/06/09 03:23:11;;;;;;;;;0.33;0.33;;;;;;;;5069500;28;46145;-74
2022/06/09 03:25:37;;;;;;;;;1.00;0.00;;;;;;;;5065312;28;45474;-74
2022/06/09 03:28:03;;;;;;;;;1.00;1.00;;;;;;;;5068733;28;45625;-74
2022/06/09 03:30:28;;;;;;;;;3.00;1.00;;;;;;;;5068177;27;45390;-73
2022/06/09 03:32:54;;;;;;;;;1.00;1.00;;;;;;;;5067739;28;45335;-73
2022/06/09 03:35:19;;;;;;;;;0.00;0.00;;;;;;;;5067225;28;45430;-73
2022/06/09 03:37:45;;;;;;;;;1.33;0.33;;;;;;;;5062407;28;45438;-73
2022/06/09 03:40:13;;;;;;;;;0.00;0.00;;;;;;;;5059752;28;45356;-73
2022/06/09 03:42:38;;;;;;;;;1.00;0.00;;;;;;;;5069139;28;45319;-73
2022/06/09 03:45:03;;;;;;;;;0.67;0.67;;;;;;;;5066327;28;45537;-74
2022/06/09 03:47:28;;;;;;;;;1.33;1.00;;;;;;;;5068351;28;45253;-74
2022/06/09 03:49:53;;;;;;;;;1.00;1.00;;;;;;;;5065524;28;45477;-73
2022/06/09 03:52:19;;;;;;;;;0.50;0.00;;;;;;;;5066065;28;46312;-74
2022/06/09 03:54:44;;;;;;;;;0.00;0.00;;;;;;;;5069911;28;45457;-73
2022/06/09 03:57:09;;;;;;;;;1.50;0.00;;;;;;;;5067941;28;45299;-73
2022/06/09 03:59:35;;;;;;;;;2.00;0.67;;;;;;;;5070098;28;45521;-73
2022/06/09 04:02:00;;;;;;;;;4.00;1.00;;;;;;;;5067732;28;45876;-73
2022/06/09 04:04:25;;;;;;;;;0.00;0.00;;;;;;;;5064965;28;45359;-74
2022/06/09 04:06:50;;;;;;;;;1.00;1.00;;;;;;;;5069958;28;45409;-73
2022/06/09 04:09:17;;;;;;;;;1.00;1.00;;;;;;;;5066299;27;45499;-73
2022/06/09 04:11:42;;;;;;;;;1.00;1.00;;;;;;;;5068711;28;46974;-73
2022/06/09 04:14:07;;;;;;;;;0.33;0.33;;;;;;;;5064889;28;45560;-73
2022/06/09 04:16:36;;;;;;;;;1.67;0.00;;;;;;;;5065245;28;45545;-73
2022/06/09 04:19:03;;;;;;;;;0.00;0.00;;;;;;;;5068244;28;46122;-74
2022/06/09 04:21:30;;;;;;;;;2.33;1.00;;;;;;;;5067887;28;46803;-73
2022/06/09 04:23:56;;;;;;;;;2.00;1.00;;;;;;;;5070758;28;45941;-74
2022/06/09 04:26:23;;;;;;;;;1.00;0.00;;;;;;;;5070092;28;45314;-73
2022/06/09 04:28:48;;;;;;;;;2.67;1.67;;;;;;;;5067782;28;45630;-73
2022/06/09 04:31:14;;;;;;;;;1.00;1.00;;;;;;;;5069731;28;48484;-73
2022/06/09 04:33:39;;;;;;;;;2.67;1.00;;;;;;;;5072398;28;45364;-73
2022/06/09 04:36:05;;;;;;;;;0.00;0.00;;;;;;;;5069459;28;45488;-74
2022/06/09 04:38:30;;;;;;;;;0.00;0.00;;;;;;;;5062129;28;45280;-73
2022/06/09 04:40:56;;;;;;;;;0.00;0.00;;;;;;;;5066736;28;46242;-73
2022/06/09 04:43:21;;;;;;;;;0.67;0.33;;;;;;;;5068076;28;45375;-73
2022/06/09 04:45:46;;;;;;;;;4.33;0.67;;;;;;;;5073033;28;45302;-73
2022/06/09 04:48:12;;;;;;;;;1.00;1.00;;;;;;;;5068656;27;45233;-74
2022/06/09 04:50:38;;;;;;;;;0.00;0.00;;;;;;;;5071906;28;47111;-73
2022/06/09 04:53:04;;;;;;;;;0.00;0.00;;;;;;;;5067691;28;45404;-73
2022/06/09 04:55:30;;;;;;;;;4.00;1.00;;;;;;;;5067670;28;45829;-74
2022/06/09 04:57:55;;;;;;;;;2.00;0.67;;;;;;;;5071684;28;45486;-73
2022/06/09 05:00:20;;;;;;;;;2.00;0.00;;;;;;;;5069040;28;46068;-73
2022/06/09 05:02:46;;;;;;;;;0.67;0.00;;;;;;;;5070654;28;45494;-73
2022/06/09 05:05:22;;;;;;;;;1.00;1.00;;;;;;;;5069291;28;45534;-74
2022/06/09 05:07:47;;;;;;;;;0.00;0.00;;;;;;;;5069469;28;45629;-73
2022/06/09 05:10:12;;;;;;;;;2.33;1.00;;;;;;;;5069284;28;45918;-74
2022/06/09 05:12:37;;;;;;;;;2.00;0.00;;;;;;;;5071259;28;45468;-74
2022/06/09 05:15:05;;;;;;;;;2.00;0.00;;;;;;;;5069147;28;45517;-73
2022/06/09 05:17:30;;;;;;;;;0.00;0.00;;;;;;;;5070557;28;45517;-73
2022/06/09 05:19:55;;;;;;;;;2.00;0.00;;;;;;;;5069988;28;45448;-73
2022/06/09 05:22:20;;;;;;;;;2.00;0.00;;;;;;;;5068007;28;45314;-73
2022/06/09 05:24:46;;;;;;;;;1.00;1.00;;;;;;;;5072404;28;45429;-73
2022/06/09 05:27:11;;;;;;;;;0.00;0.00;;;;;;;;5068026;27;45263;-73
2022/06/09 05:29:37;;;;;;;;;1.33;0.00;;;;;;;;5071170;28;46330;-74
2022/06/09 05:32:03;;;;;;;;;1.00;1.00;;;;;;;;5067045;27;45515;-73
2022/06/09 05:34:30;;;;;;;;;1.00;1.00;;;;;;;;5066455;28;45263;-73
2022/06/09 05:36:55;;;;;;;;;1.67;0.00;;;;;;;;5071465;28;45927;-73
2022/06/09 05:44:50;;;;;;;;;0.00;0.00;;;;;;;;5072314;28;45495;-74
2022/06/09 05:47:19;;;;;;;;;0.00;0.00;;;;;;;;5071254;28;45382;-74
2022/06/09 05:49:44;;;;;;;;;0.00;0.00;;;;;;;;5066703;28;46119;-76
2022/06/09 05:52:09;;;;;;;;;0.67;0.67;;;;;;;;5069067;28;45470;-80
2022/06/09 05:54:35;;;;;;;;;0.33;0.00;;;;;;;;5070403;28;45436;-75
2022/06/09 05:57:00;;;;;;;;;0.67;0.67;;;;;;;;5068690;28;45383;-76
2022/06/09 05:59:25;;;;;;;;;1.33;0.67;;;;;;;;5072144;28;47125;-76
2022/06/09 06:01:52;;;;;;;;;1.33;0.33;;;;;;;;5062798;27;45439;-73
2022/06/09 06:04:17;;;;;;;;;0.00;0.00;;;;;;;;5064501;27;45435;-74
2022/06/09 06:06:43;;;;;;;;;1.33;1.33;;;;;;;;5068692;27;45573;-74
2022/06/09 06:09:15;;;;;;;;;1.67;1.00;;;;;;;;5065080;28;46030;-74
2022/06/09 06:11:42;;;;;;;;;0.00;0.00;;;;;;;;5067141;27;45520;-74
2022/06/09 06:14:08;;;;;;;;;0.67;0.67;;;;;;;;5071151;27;45563;-74
2022/06/09 06:16:33;;;;;;;;;0.00;0.00;;;;;;;;5065028;27;47349;-75
2022/06/09 06:18:59;;;;;;;;;0.00;0.00;;;;;;;;5059205;28;46118;-75
2022/06/09 06:21:24;;;;;;;;;1.00;1.00;;;;;;;;5056149;28;45340;-75
2022/06/09 06:23:50;;;;;;;;;1.33;1.00;;;;;;;;5069293;27;45349;-74
2022/06/09 06:26:16;;;;;;;;;1.00;1.00;;;;;;;;5074659;27;45659;-74
2022/06/09 06:28:41;;;;;;;;;0.00;0.00;;;;;;;;5069171;27;45500;-74
2022/06/09 06:31:06;;;;;;;;;1.00;1.00;;;;;;;;5075340;27;45421;-74
2022/06/09 06:33:32;;;;;;;;;2.00;0.00;;;;;;;;5080526;27;45618;-74
2022/06/09 06:35:57;;;;;;;;;1.67;1.00;;;;;;;;5069066;27;45414;-75
2022/06/09 06:38:22;;;;;;;;;1.00;0.00;;;;;;;;5066973;27;46057;-73
2022/06/09 06:40:48;;;;;;;;;2.00;0.67;;;;;;;;5066227;27;48148;-74
2022/06/09 06:43:13;;;;;;;;;3.00;0.00;;;;;;;;5069829;27;45505;-74
2022/06/09 06:45:38;;;;;;;;;1.33;0.00;;;;;;;;5067598;27;45437;-74
2022/06/09 06:48:04;;;;;;;;;3.00;0.33;;;;;;;;5063718;28;45625;-74
2022/06/09 06:50:29;;;;;;;;;2.00;0.00;;;;;;;;5069791;27;45557;-74
2022/06/09 06:52:54;;;;;;;;;0.33;0.00;;;;;;;;5068793;28;45399;-74
2022/06/09 06:55:20;;;;;;;;;1.67;0.00;;;;;;;;5069286;28;45374;-74
2022/06/09 06:57:46;;;;;;;;;0.00;0.00;;;;;;;;5072199;27;46248;-74
2022/06/09 07:00:13;;;;;;;;;4.00;1.00;;;;;;;;5074828;27;45388;-74
2022/06/09 07:02:38;;;;;;;;;0.67;0.33;;;;;;;;5067772;27;45287;-74
2022/06/09 07:05:04;;;;;;;;;4.33;2.00;;;;;;;;5058639;28;45250;-74
2022/06/09 07:07:30;;;;;;;;;0.67;0.00;;;;;;;;5067163;27;45964;-74
2022/06/09 07:09:55;;;;;;;;;2.00;1.00;;;;;;;;5074027;27;45343;-74
2022/06/09 07:12:20;;;;;;;;;2.33;1.00;;;;;;;;5072708;27;45528;-74
2022/06/09 07:14:45;;;;;;;;;4.67;1.00;;;;;;;;5069063;27;45451;-74
2022/06/09 07:17:11;;;;;;;;;0.00;0.00;;;;;;;;5077976;27;46179;-74
2022/06/09 07:19:37;;;;;;;;;3.00;1.00;;;;;;;;5068710;28;45551;-73
2022/06/09 07:22:02;;;;;;;;;1.00;1.00;;;;;;;;5069003;27;45570;-74
2022/06/09 07:24:28;;;;;;;;;2.00;0.00;;;;;;;;5075009;27;45302;-74
2022/06/09 07:26:53;;;;;;;;;0.00;0.00;;;;;;;;5073559;27;46191;-74
2022/06/09 07:29:18;;;;;;;;;1.00;1.00;;;;;;;;5064708;27;45475;-75
2022/06/09 07:31:44;;;;;;;;;1.67;0.00;;;;;;;;5061087;28;45194;-74
2022/06/09 07:34:09;;;;;;;;;0.00;0.00;;;;;;;;5061764;27;45462;-74
2022/06/09 07:36:34;;;;;;;;;0.67;0.67;;;;;;;;5058505;28;46303;-74
2022/06/09 07:38:59;;;;;;;;;2.00;0.00;;;;;;;;5068926;27;45453;-74
2022/06/09 07:41:24;;;;;;;;;0.33;0.33;;;;;;;;5071374;27;45477;-74
2022/06/09 07:43:50;;;;;;;;;3.00;1.00;;;;;;;;5065852;28;45529;-74
2022/06/09 07:46:16;;;;;;;;;0.33;0.33;;;;;;;;5070829;27;47142;-74
2022/06/09 07:48:41;;;;;;;;;3.33;1.67;;;;;;;;5068935;28;45407;-74
2022/06/09 07:51:06;;;;;;;;;0.00;0.00;;;;;;;;5072017;27;45161;-74
2022/06/09 07:53:31;;;;;;;;;1.67;0.00;;;;;;;;5060877;28;45244;-74
2022/06/09 07:55:56;;;;;;;;;1.00;1.00;;;;;;;;5071074;27;45440;-74
2022/06/09 07:58:22;;;;;;;;;2.00;0.00;;;;;;;;5077613;27;45450;-74
2022/06/09 08:00:48;;;;;;;;;0.33;0.33;;;;;;;;5080057;27;45496;-74
2022/06/09 08:03:20;;;;;;;;;2.33;0.67;;;;;;;;5066889;27;45498;-74
2022/06/09 08:05:46;;;;;;;;;1.00;1.00;;;;;;;;5063362;28;47039;-74
2022/06/09 08:08:11;;;;;;;;;1.00;1.00;;;;;;;;5074297;27;45525;-73
2022/06/09 08:10:38;;;;;;;;;1.00;1.00;;;;;;;;5078828;27;45457;-74
2022/06/09 08:13:03;;;;;;;;;4.00;1.00;;;;;;;;5071348;27;45418;-74
2022/06/09 08:15:29;;;;;;;;;1.00;1.00;;;;;;;;5070600;27;46090;-74
2022/06/09 08:17:55;;;;;;;;;1.00;0.00;;;;;;;;5072866;27;45300;-74
2022/06/09 08:20:21;;;;;;;;;0.00;0.00;;;;;;;;5077195;27;45452;-73
2022/06/09 08:22:47;;;;;;;;;2.00;0.00;;;;;;;;5071891;27;45324;-74
2022/06/09 08:25:14;;;;;;;;;1.00;1.00;;;;;;;;5070720;27;45260;-74
2022/06/09 08:27:39;;;;;;;;;2.00;1.00;;;;;;;;5073540;27;45426;-74
2022/06/09 08:30:05;;;;;;;;;2.00;2.00;;;;;;;;5081063;27;45433;-74
2022/06/09 08:32:30;;;;;;;;;0.00;0.00;;;;;;;;5076528;28;45459;-74
2022/06/09 08:34:56;;;;;;;;;0.33;0.33;;;;;;;;5072258;27;47064;-74
2022/06/09 08:37:21;;;;;;;;;2.00;1.00;;;;;;;;5065685;27;45354;-73
2022/06/09 08:39:47;;;;;;;;;1.00;1.00;;;;;;;;5074148;27;45530;-74
2022/06/09 08:42:18;;;;;;;;;2.33;1.00;;;;;;;;5075844;27;45426;-74
2022/06/09 08:45:02;;;;;;;;;0.33;0.33;;;;;;;;5074210;28;45375;-74
2022/06/09 08:47:38;;;;;;;;;1.33;0.33;;;;;;;;5085049;27;45583;-74
2022/06/09 08:50:15;;;;;;;;;0.00;0.00;;;;;;;;5074050;27;45575;-74
2022/06/09 08:52:41;;;;;;;;;1.00;0.00;;;;;;;;5075151;27;45481;-74
2022/06/09 08:55:26;;;;;;;;;0.00;0.00;;;;;;;;5069951;27;46124;-74
2022/06/09 08:57:53;;;;;;;;;0.00;0.00;;;;;;;;5072596;27;46822;-74
2022/06/09 09:00:20;;;;;;;;;0.00;0.00;;;;;;;;5077576;27;45548;-74
2022/06/09 09:02:50;;;;;;;;;2.00;1.00;;;;;;;;5065784;28;45470;-74
2022/06/09 09:05:18;;;;;;;;;1.67;0.67;;;;;;;;5083388;27;46351;-74
2022/06/09 09:07:48;;;;;;;;;0.67;0.67;;;;;;;;5072434;27;45382;-74
2022/06/09 09:10:17;;;;;;;;;0.67;0.00;;;;;;;;5072706;27;45789;-74
2022/06/09 09:12:53;;;;;;;;;2.00;0.33;;;;;;;;5075334;27;45504;-74
2022/06/09 09:15:44;;;;;;;;;0.00;0.00;;;;;;;;5070371;27;46420;-74
2022/06/09 09:18:26;;;;;;;;;0.50;0.50;;;;;;;;5068581;27;47201;-74
2022/06/09 09:20:57;;;;;;;;;0.00;0.00;;;;;;;;5073153;27;45406;-74
2022/06/09 09:23:29;;;;;;;;;1.00;0.00;;;;;;;;5070483;27;45908;-74
2022/06/09 09:26:09;;;;;;;;;0.00;0.00;;;;;;;;5069332;27;46214;-74
2022/06/09 09:28:44;;;;;;;;;0.00;0.00;;;;;;;;5065588;28;45338;-74
2022/06/09 09:31:28;;;;;;;;;0.67;0.67;;;;;;;;5076751;27;46822;-74
2022/06/09 09:33:55;;;;;;;;;0.33;0.00;;;;;;;;5069534;27;45463;-74
2022/06/09 09:36:23;;;;;;;;;0.00;0.00;;;;;;;;5075670;27;46236;-74
2022/06/09 09:38:51;;;;;;;;;3.67;0.00;;;;;;;;5057681;27;45482;-74
2022/06/09 09:41:34;;;;;;;;;0.00;0.00;;;;;;;;5071738;28;45280;-74
2022/06/09 09:44:00;;;;;;;;;0.67;0.67;;;;;;;;5062544;28;45433;-74
2022/06/09 09:46:31;;;;;;;;;0.00;0.00;;;;;;;;5073286;27;46558;-73
2022/06/09 09:48:58;;;;;;;;;0.33;0.00;;;;;;;;5069941;28;45980;-74
2022/06/09 09:51:31;;;;;;;;;0.00;0.00;;;;;;;;5073621;27;45389;-74
2022/06/09 09:53:56;;;;;;;;;0.00;0.00;;;;;;;;5080499;27;45349;-74
2022/06/09 09:56:24;;;;;;;;;0.00;0.00;;;;;;;;5071708;27;45425;-74
2022/06/09 09:58:53;;;;;;;;;0.00;0.00;;;;;;;;5069320;28;45472;-74
2022/06/09 10:01:24;;;;;;;;;0.33;0.33;;;;;;;;5069744;27;45427;-74
2022/06/09 10:09:28;;;;;;;;;0.00;0.00;;;;;;;;5059371;27;45609;-74
2022/06/09 10:11:55;;;;;;;;;4.00;1.33;;;;;;;;5074918;27;45387;-74
2022/06/09 10:14:33;;;;;;;;;2.00;1.00;;;;;;;;5068719;28;45667;-73
2022/06/09 10:16:58;;;;;;;;;1.67;0.67;;;;;;;;5059758;28;45495;-74
2022/06/09 10:19:26;;;;;;;;;1.00;1.00;;;;;;;;5068201;27;45312;-74
2022/06/09 10:21:51;;;;;;;;;0.00;0.00;;;;;;;;5064699;27;45519;-73
2022/06/09 10:24:19;;;;;;;;;2.25;2.00;;;;;;;;5073809;27;45530;-74
2022/06/09 10:26:46;;;;;;;;;1.00;1.00;;;;;;;;5072420;28;46247;-74
2022/06/09 10:29:11;;;;;;;;;1.67;0.00;;;;;;;;5065923;27;45431;-74
2022/06/09 10:31:39;;;;;;;;;2.50;1.25;;;;;;;;5064894;28;45370;-74
2022/06/09 10:34:10;;;;;;;;;1.00;1.00;;;;;;;;5069794;27;45267;-74
2022/06/09 10:36:37;;;;;;;;;1.00;1.00;;;;;;;;5070513;28;45517;-74
2022/06/09 10:39:11;;;;;;;;;0.67;0.67;;;;;;;;5057235;27;45505;-73
2022/06/09 10:41:43;;;;;;;;;0.67;0.33;;;;;;;;5076767;27;45421;-74
2022/06/09 10:44:26;;;;;;;;;0.00;0.00;;;;;;;;5071460;27;45415;-74
2022/06/09 10:56:02;;;;;;;;;1.00;1.00;;;;;;;;5068375;27;45428;-74
2022/06/09 10:58:42;;;;;;;;;1.00;1.00;;;;;;;;5075762;27;46286;-74
2022/06/09 11:01:18;;;;;;;;;0.00;0.00;;;;;;;;5075433;27;45428;-74
2022/06/09 11:03:46;;;;;;;;;0.00;0.00;;;;;;;;5069938;27;45591;-74
2022/06/09 11:06:20;;;;;;;;;0.00;0.00;;;;;;;;5064254;28;45295;-74
2022/06/09 11:08:45;;;;;;;;;0.00;0.00;;;;;;;;5071710;27;47070;-73
2022/06/09 11:11:10;;;;;;;;;0.00;0.00;;;;;;;;5062630;28;45629;-74
2022/06/09 11:13:41;;;;;;;;;0.33;0.33;;;;;;;;5064877;27;45370;-74
2022/06/09 11:16:25;;;;;;;;;1.00;1.00;;;;;;;;5068529;28;45414;-74
2022/06/09 11:19:08;;;;;;;;;0.67;0.67;;;;;;;;5068831;27;45523;-74
2022/06/09 11:21:36;;;;;;;;;4.00;1.33;;;;;;;;5070925;27;45416;-74
2022/06/09 11:24:01;;;;;;;;;2.00;1.00;;;;;;;;5071712;28;45579;-74
2022/06/09 11:26:32;;;;;;;;;2.00;1.00;;;;;;;;5080832;27;45299;-74
2022/06/09 11:29:16;;;;;;;;;0.67;0.67;;;;;;;;5069401;27;46180;-74
2022/06/09 11:32:20;;;;;;;;;0.33;0.33;;;;;;;;5066932;28;45335;-74
2022/06/09 11:34:50;;;;;;;;;2.00;0.00;;;;;;;;5052158;28;45396;-74
2022/06/09 11:37:30;;;;;;;;;0.00;0.00;;;;;;;;5051687;28;45720;-73
2022/06/09 11:40:17;;;;;;;;;1.00;1.00;;;;;;;;5050706;28;46113;-73
2022/06/09 11:42:46;;;;;;;;;0.00;0.00;;;;;;;;5048860;28;45526;-73
2022/06/09 11:45:31;;;;;;;;;1.33;1.33;;;;;;;;5051605;28;45452;-74
2022/06/09 11:47:58;;;;;;;;;0.00;0.00;;;;;;;;5049048;28;45565;-74
2022/06/09 11:50:27;;;;;;;;;0.00;0.00;;;;;;;;5052299;28;46964;-74
2022/06/09 11:52:56;;;;;;;;;1.00;0.67;;;;;;;;5049607;28;45878;-73
2022/06/09 11:58:34;;;;;;;;;2.00;2.00;;;;;;;;5053502;28;45375;-73
2022/06/09 12:01:14;;;;;;;;;2.00;0.00;;;;;;;;5048848;28;45448;-73
2022/06/09 12:03:46;;;;;;;;;0.00;0.00;;;;;;;;5063544;28;45622;-73
2022/06/09 12:06:25;;;;;;;;;2.67;0.67;;;;;;;;5067424;27;45426;-73
2022/06/09 12:08:53;;;;;;;;;0.00;0.00;;;;;;;;5071111;28;45454;-74
2022/06/09 12:11:20;;;;;;;;;0.00;0.00;;;;;;;;5073299;27;45309;-73
2022/06/09 12:13:46;;;;;;;;;0.00;0.00;;;;;;;;5071411;27;45575;-74
2022/06/09 12:16:23;;;;;;;;;0.00;0.00;;;;;;;;5065742;28;45497;-73
2022/06/09 12:19:06;;;;;;;;;0.00;0.00;;;;;;;;5063317;27;45569;-74
2022/06/09 12:21:34;;;;;;;;;1.00;1.00;;;;;;;;5056018;28;46993;-74
2022/06/09 12:24:14;;;;;;;;;3.00;0.00;;;;;;;;5070866;28;45543;-73
2022/06/09 12:26:39;;;;;;;;;3.00;0.00;;;;;;;;5069777;27;45444;-74
2022/06/09 12:29:23;;;;;;;;;1.00;1.00;;;;;;;;5061258;27;45489;-74
2022/06/09 12:32:08;;;;;;;;;3.00;1.00;;;;;;;;5064852;28;47305;-74
2022/06/09 12:34:34;;;;;;;;;1.33;1.33;;;;;;;;5073521;27;45543;-74
2022/06/09 12:37:00;;;;;;;;;1.33;1.00;;;;;;;;5070582;27;45454;-74
2022/06/09 12:39:37;;;;;;;;;0.00;0.00;;;;;;;;5065057;27;45269;-74
2022/06/09 12:42:23;;;;;;;;;0.67;0.67;;;;;;;;5070850;27;47179;-74
2022/06/09 12:44:51;;;;;;;;;0.00;0.00;;;;;;;;5068152;28;45418;-74
2022/06/09 12:47:24;;;;;;;;;1.00;1.00;;;;;;;;5074760;27;45508;-74
2022/06/09 12:49:57;;;;;;;;;0.33;0.33;;;;;;;;5070702;27;45658;-74
2022/06/09 12:52:45;;;;;;;;;0.00;0.00;;;;;;;;5071665;27;46184;-74
2022/06/09 12:55:14;;;;;;;;;1.00;1.00;;;;;;;;5074311;27;45375;-73
2022/06/09 12:57:45;;;;;;;;;2.33;1.00;;;;;;;;5076867;27;45374;-74
2022/06/09 13:00:16;;;;;;;;;1.00;0.00;;;;;;;;5075272;27;45363;-74
2022/06/09 13:02:43;;;;;;;;;1.00;0.00;;;;;;;;5073382;27;47637;-73
2022/06/09 13:05:17;;;;;;;;;1.00;0.00;;;;;;;;5065008;28;45568;-73
2022/06/09 13:07:57;;;;;;;;;0.00;0.00;;;;;;;;5069898;27;45530;-74
2022/06/09 13:10:33;;;;;;;;;0.00;0.00;;;;;;;;5065582;27;45437;-74
2022/06/09 13:13:20;;;;;;;;;0.67;0.67;;;;;;;;5070636;27;47092;-74
2022/06/09 13:16:14;;;;;;;;;2.67;0.00;;;;;;;;5069298;27;45257;-73
2022/06/09 13:18:42;;;;;;;;;2.00;1.00;;;;;;;;5045570;27;45397;-73
2022/06/09 13:21:11;;;;;;;;;1.00;1.00;;;;;;;;5066548;27;45586;-74
2022/06/09 13:23:37;;;;;;;;;0.67;0.67;;;;;;;;5076697;27;45467;-73
2022/06/09 13:26:03;;;;;;;;;1.00;1.00;;;;;;;;5066706;27;45425;-73
2022/06/09 13:28:32;;;;;;;;;1.00;0.00;;;;;;;;5068497;27;46029;-73
2022/06/09 13:30:58;;;;;;;;;0.33;0.33;;;;;;;;5080680;27;45485;-74
2022/06/09 13:33:32;;;;;;;;;0.00;0.00;;;;;;;;5061289;27;46161;-73
2022/06/09 13:36:16;;;;;;;;;0.00;0.00;;;;;;;;5073017;28;45338;-74
2022/06/09 13:38:42;;;;;;;;;1.00;1.00;;;;;;;;5089261;27;45385;-74
2022/06/09 13:41:25;;;;;;;;;1.00;1.00;;;;;;;;5069503;28;45326;-74
2022/06/09 13:43:52;;;;;;;;;0.00;0.00;;;;;;;;5061507;28;45319;-75
2022/06/09 13:46:37;;;;;;;;;2.00;2.00;;;;;;;;5069426;27;45769;-74
2022/06/09 13:49:17;;;;;;;;;1.00;1.00;;;;;;;;5064489;27;45350;-74
2022/06/09 13:51:54;;;;;;;;;1.00;1.00;;;;;;;;5070164;27;45359;-75
2022/06/09 13:54:21;;;;;;;;;1.00;1.00;;;;;;;;5069214;27;47261;-75
2022/06/09 13:56:47;;;;;;;;;0.00;0.00;;;;;;;;5079858;27;45452;-75
2022/06/09 13:59:13;;;;;;;;;0.00;0.00;;;;;;;;5063431;28;45418;-75
2022/06/09 14:01:38;;;;;;;;;2.00;0.33;;;;;;;;5065974;27;45423;-74
2022/06/09 14:04:08;;;;;;;;;2.00;1.00;;;;;;;;5073508;28;46936;-75
2022/06/09 14:06:33;;;;;;;;;1.67;1.00;;;;;;;;5072777;28;45413;-74
2022/06/09 14:08:58;;;;;;;;;2.00;0.33;;;;;;;;5066034;28;45300;-75
2022/06/09 14:11:25;;;;;;;;;1.00;1.00;;;;;;;;5066322;27;45560;-75
2022/06/09 14:13:53;;;;;;;;;0.33;0.33;;;;;;;;5061584;28;46415;-75
2022/06/09 14:16:21;;;;;;;;;1.00;0.00;;;;;;;;5065333;28;45498;-74
2022/06/09 14:18:46;;;;;;;;;2.00;1.33;;;;;;;;5072572;27;45704;-74
2022/06/09 14:21:11;;;;;;;;;2.00;1.00;;;;;;;;5076150;27;45398;-74
2022/06/09 14:23:37;;;;;;;;;0.67;0.67;;;;;;;;5062536;28;46367;-74
2022/06/09 14:26:26;;;;;;;;;0.67;0.67;;;;;;;;5066880;27;45318;-74
2022/06/09 14:28:52;;;;;;;;;1.00;1.00;;;;;;;;5063523;28;45438;-73
2022/06/09 14:31:19;;;;;;;;;3.00;1.00;;;;;;;;5069816;27;45438;-74
2022/06/09 14:33:44;;;;;;;;;1.00;1.00;;;;;;;;5071231;27;46131;-73
2022/06/09 14:36:11;;;;;;;;;1.00;1.00;;;;;;;;5065010;28;45299;-74
2022/06/09 14:38:36;;;;;;;;;1.00;1.00;;;;;;;;5059138;28;45423;-73
2022/06/09 14:41:01;;;;;;;;;0.67;0.00;;;;;;;;5065294;28;45567;-74
2022/06/09 14:43:26;;;;;;;;;1.00;1.00;;;;;;;;5067255;27;45569;-74
2022/06/09 14:45:54;;;;;;;;;1.00;1.00;;;;;;;;5068514;28;45589;-74
2022/06/09 14:48:23;;;;;;;;;1.00;0.00;;;;;;;;5074879;27;45516;-73
2022/06/09 14:50:49;;;;;;;;;0.33;0.33;;;;;;;;5072008;27;45452;-73
2022/06/09 14:53:15;;;;;;;;;4.00;1.67;;;;;;;;5078655;27;45842;-74
2022/06/09 14:55:41;;;;;;;;;1.00;1.00;;;;;;;;5061698;28;45534;-74
2022/06/09 14:58:06;;;;;;;;;3.00;0.00;;;;;;;;5072936;27;45303;-74
2022/06/09 15:00:35;;;;;;;;;0.67;0.00;;;;;;;;5079063;27;45427;-74
2022/06/09 15:03:00;;;;;;;;;1.00;1.00;;;;;;;;5063673;27;47212;-74
2022/06/09 15:05:26;;;;;;;;;0.33;0.33;;;;;;;;5076830;27;45731;-74
2022/06/09 15:07:51;;;;;;;;;0.67;0.67;;;;;;;;5068311;27;45415;-74
2022/06/09 15:10:19;;;;;;;;;2.00;1.00;;;;;;;;5068077;28;45366;-74
2022/06/09 15:12:44;;;;;;;;;0.00;0.00;;;;;;;;5070474;27;45427;-74
2022/06/09 15:15:12;;;;;;;;;1.00;1.00;;;;;;;;5068348;27;45394;-74